createdAt,value
2022-11-27T00:00:28.228Z,3.00
2022-11-27T00:01:34.283Z,3.00
2022-11-27T00:02:40.587Z,3.00
2022-11-27T00:03:46.721Z,2.60
2022-11-27T00:04:49.265Z,2.90
2022-11-27T00:05:59.622Z,2.90
2022-11-27T00:07:02.141Z,4.60
2022-11-27T00:08:05.811Z,3.10
2022-11-27T00:09:11.749Z,3.00
2022-11-27T00:10:18.573Z,3.00
2022-11-27T00:11:23.238Z,3.00
2022-11-27T00:12:27.711Z,3.50
2022-11-27T00:13:31.298Z,1.60
2022-11-27T00:14:34.782Z,3.00
2022-11-27T00:15:37.118Z,3.00
2022-11-27T00:16:40.769Z,1.90
2022-11-27T00:17:43.503Z,2.90
2022-11-27T00:18:47.441Z,3.00
2022-11-27T00:19:49.895Z,3.00
2022-11-27T00:20:53.365Z,3.00
2022-11-27T00:21:55.745Z,2.90
2022-11-27T00:22:58.959Z,2.90
2022-11-27T00:24:03.873Z,2.90
2022-11-27T00:25:08.332Z,2.90
2022-11-27T00:26:11.555Z,3.00
2022-11-27T00:27:14.936Z,2.90
2022-11-27T00:28:17.225Z,3.00
2022-11-27T00:29:21.863Z,2.20
2022-11-27T00:30:24.264Z,3.00
2022-11-27T00:31:29.774Z,3.00
2022-11-27T00:32:33.574Z,3.00
2022-11-27T00:33:37.580Z,3.00
2022-11-27T00:34:40.965Z,3.00
2022-11-27T00:35:44.352Z,3.00
2022-11-27T00:36:48.428Z,3.00
2022-11-27T00:37:50.817Z,3.00
2022-11-27T00:38:54.768Z,3.10
2022-11-27T00:39:57.025Z,3.00
2022-11-27T00:41:06.393Z,3.00
2022-11-27T00:42:09.677Z,3.00
2022-11-27T00:43:12.338Z,3.00
2022-11-27T00:44:15.957Z,3.00
2022-11-27T00:45:19.967Z,3.00
2022-11-27T00:46:29.040Z,3.00
2022-11-27T00:47:34.743Z,3.00
2022-11-27T00:48:37.363Z,3.00
2022-11-27T00:49:40.904Z,3.00
2022-11-27T00:50:43.324Z,2.90
2022-11-27T00:51:47.024Z,2.90
2022-11-27T00:52:49.331Z,2.90
2022-11-27T00:53:53.496Z,2.90
2022-11-27T00:54:56.016Z,3.00
2022-11-27T00:56:00.073Z,3.00
2022-11-27T00:57:02.513Z,3.00
2022-11-27T00:58:05.725Z,2.90
2022-11-27T00:59:10.070Z,2.40
2022-11-27T01:00:14.753Z,3.00
2022-11-27T01:01:22.108Z,3.00
2022-11-27T01:02:25.919Z,3.00
2022-11-27T01:03:29.762Z,3.00
2022-11-27T01:04:32.995Z,3.00
2022-11-27T01:05:37.268Z,2.90
2022-11-27T01:06:40.736Z,3.00
2022-11-27T01:07:44.000Z,1.90
2022-11-27T01:08:48.441Z,3.70
2022-11-27T01:09:51.819Z,3.00
2022-11-27T01:10:56.125Z,2.90
2022-11-27T01:12:00.109Z,3.00
2022-11-27T01:13:03.309Z,3.00
2022-11-27T01:14:09.494Z,3.00
2022-11-27T01:15:12.089Z,3.00
2022-11-27T01:16:20.459Z,3.10
2022-11-27T01:17:24.240Z,3.00
2022-11-27T01:18:31.153Z,3.00
2022-11-27T01:19:33.569Z,3.00
2022-11-27T01:20:40.390Z,2.90
2022-11-27T01:21:43.050Z,2.90
2022-11-27T01:22:48.387Z,2.90
2022-11-27T01:23:51.359Z,3.00
2022-11-27T01:24:54.699Z,2.80
2022-11-27T01:25:57.293Z,3.00
2022-11-27T01:27:00.581Z,2.80
2022-11-27T01:28:05.394Z,2.90
2022-11-27T01:29:09.444Z,2.80
2022-11-27T01:30:12.817Z,2.90
2022-11-27T01:31:18.923Z,2.90
2022-11-27T01:32:23.566Z,2.90
2022-11-27T01:33:29.301Z,2.90
2022-11-27T01:34:33.192Z,2.90
2022-11-27T01:35:35.518Z,2.90
2022-11-27T01:36:38.762Z,3.00
2022-11-27T01:37:41.091Z,2.90
2022-11-27T01:38:45.043Z,3.00
2022-11-27T01:39:47.343Z,3.00
2022-11-27T01:40:51.142Z,3.00
2022-11-27T01:41:54.416Z,3.00
2022-11-27T01:42:56.854Z,3.00
2022-11-27T01:44:04.254Z,3.00
2022-11-27T01:45:10.062Z,4.70
2022-11-27T01:46:39.362Z,3.00
2022-11-27T01:47:48.271Z,3.00
2022-11-27T01:48:54.686Z,3.10
2022-11-27T01:50:09.815Z,3.00
2022-11-27T01:51:13.545Z,3.10
2022-11-27T01:52:21.258Z,3.10
2022-11-27T01:53:25.068Z,3.10
2022-11-27T01:54:33.149Z,3.10
2022-11-27T01:55:42.006Z,3.10
2022-11-27T01:56:50.421Z,3.10
2022-11-27T01:57:59.267Z,3.10
2022-11-27T01:59:07.984Z,3.10
2022-11-27T02:00:14.149Z,3.30
2022-11-27T02:01:17.846Z,3.10
2022-11-27T02:02:20.365Z,3.10
2022-11-27T02:03:25.255Z,3.70
2022-11-27T02:04:31.673Z,3.00
2022-11-27T02:05:35.793Z,3.10
2022-11-27T02:06:38.019Z,3.10
2022-11-27T02:07:41.832Z,3.10
2022-11-27T02:08:44.629Z,3.10
2022-11-27T02:09:48.660Z,3.10
2022-11-27T02:10:57.198Z,3.10
2022-11-27T02:12:12.225Z,3.10
2022-11-27T02:13:21.450Z,3.10
2022-11-27T02:14:36.101Z,3.10
2022-11-27T02:15:46.513Z,3.10
2022-11-27T02:16:59.044Z,3.10
2022-11-27T02:18:12.985Z,3.10
2022-11-27T02:19:34.278Z,3.00
2022-11-27T02:20:45.775Z,3.00
2022-11-27T02:22:00.578Z,3.10
2022-11-27T02:23:36.381Z,3.10
2022-11-27T02:24:52.088Z,3.00
2022-11-27T02:26:17.971Z,4.30
2022-11-27T02:27:57.799Z,3.00
2022-11-27T02:29:05.719Z,3.00
2022-11-27T02:30:10.080Z,3.30
2022-11-27T02:31:22.490Z,3.00
2022-11-27T02:32:35.635Z,3.00
2022-11-27T02:33:45.397Z,3.00
2022-11-27T02:34:56.237Z,3.00
2022-11-27T02:36:06.856Z,3.00
2022-11-27T02:37:18.134Z,2.30
2022-11-27T02:38:28.279Z,3.00
2022-11-27T02:39:42.409Z,3.10
2022-11-27T02:40:52.360Z,3.00
2022-11-27T02:42:02.734Z,3.10
2022-11-27T02:43:12.231Z,3.10
2022-11-27T02:44:18.635Z,3.10
2022-11-27T02:45:27.708Z,3.10
2022-11-27T02:46:34.292Z,3.10
2022-11-27T02:47:40.355Z,3.10
2022-11-27T02:48:48.521Z,3.10
2022-11-27T02:49:57.134Z,3.10
2022-11-27T02:51:01.660Z,2.20
2022-11-27T02:52:07.692Z,3.10
2022-11-27T02:53:17.462Z,3.10
2022-11-27T02:54:25.350Z,3.10
2022-11-27T02:55:34.343Z,3.10
2022-11-27T02:56:40.922Z,3.10
2022-11-27T02:57:46.884Z,3.10
2022-11-27T02:58:52.806Z,3.10
2022-11-27T03:00:00.391Z,3.10
2022-11-27T03:01:06.730Z,3.20
2022-11-27T03:02:16.216Z,3.10
2022-11-27T03:03:22.075Z,3.10
2022-11-27T03:04:32.570Z,2.80
2022-11-27T03:05:40.714Z,3.10
2022-11-27T03:06:48.348Z,3.10
2022-11-27T03:07:59.759Z,3.10
2022-11-27T03:09:10.082Z,3.00
2022-11-27T03:10:19.613Z,3.10
2022-11-27T03:11:24.676Z,3.00
2022-11-27T03:12:27.421Z,3.10
2022-11-27T03:13:38.384Z,2.50
2022-11-27T03:14:43.787Z,3.10
2022-11-27T03:15:58.424Z,4.40
2022-11-27T03:17:07.593Z,4.10
2022-11-27T03:18:25.225Z,3.10
2022-11-27T03:19:37.330Z,3.10
2022-11-27T03:20:50.166Z,3.10
2022-11-27T03:21:56.981Z,3.20
2022-11-27T03:23:00.749Z,3.10
2022-11-27T03:24:03.684Z,3.10
2022-11-27T03:25:07.503Z,3.10
2022-11-27T03:26:10.025Z,3.10
2022-11-27T03:27:23.882Z,3.10
2022-11-27T03:28:29.864Z,3.10
2022-11-27T03:29:40.778Z,3.10
2022-11-27T03:31:22.996Z,3.10
2022-11-27T03:32:27.225Z,3.00
2022-11-27T03:33:30.644Z,3.00
2022-11-27T03:34:35.207Z,2.90
2022-11-27T03:35:39.076Z,2.90
2022-11-27T03:36:41.631Z,3.00
2022-11-27T03:37:45.205Z,2.90
2022-11-27T03:38:51.423Z,2.90
2022-11-27T03:39:55.524Z,2.90
2022-11-27T03:41:06.601Z,2.80
2022-11-27T03:42:22.041Z,2.90
2022-11-27T03:43:32.447Z,2.90
2022-11-27T03:44:42.598Z,2.90
2022-11-27T03:45:55.961Z,2.90
2022-11-27T03:47:10.871Z,3.00
2022-11-27T03:48:25.810Z,3.00
2022-11-27T03:49:40.634Z,3.10
2022-11-27T03:51:02.650Z,3.10
2022-11-27T03:52:13.128Z,3.00
2022-11-27T03:53:26.073Z,3.10
2022-11-27T03:54:44.554Z,3.10
2022-11-27T03:55:56.465Z,3.10
2022-11-27T03:57:06.586Z,3.10
2022-11-27T03:58:20.779Z,3.10
2022-11-27T03:59:26.416Z,2.60
2022-11-27T04:00:35.240Z,3.10
2022-11-27T04:01:39.134Z,3.10
2022-11-27T04:02:47.985Z,3.10
2022-11-27T04:03:50.336Z,3.10
2022-11-27T04:04:54.161Z,3.10
2022-11-27T04:05:56.989Z,3.10
2022-11-27T04:07:00.406Z,3.10
2022-11-27T04:08:02.753Z,3.10
2022-11-27T04:09:06.804Z,3.00
2022-11-27T04:10:17.242Z,3.00
2022-11-27T04:11:21.035Z,2.90
2022-11-27T04:12:23.456Z,2.90
2022-11-27T04:13:26.979Z,2.90
2022-11-27T04:14:29.281Z,3.00
2022-11-27T04:15:32.733Z,3.00
2022-11-27T04:16:38.560Z,3.00
2022-11-27T04:17:43.490Z,3.00
2022-11-27T04:18:45.822Z,3.00
2022-11-27T04:19:49.219Z,3.00
2022-11-27T04:20:51.521Z,3.10
2022-11-27T04:21:55.415Z,3.00
2022-11-27T04:22:58.930Z,3.00
2022-11-27T04:24:01.165Z,3.00
2022-11-27T04:25:04.930Z,3.00
2022-11-27T04:26:07.347Z,3.00
2022-11-27T04:27:10.966Z,3.00
2022-11-27T04:28:13.537Z,3.00
2022-11-27T04:29:16.976Z,3.00
2022-11-27T04:30:20.160Z,3.00
2022-11-27T04:31:23.599Z,3.00
2022-11-27T04:32:25.993Z,2.90
2022-11-27T04:33:30.927Z,2.90
2022-11-27T04:34:33.684Z,2.30
2022-11-27T04:35:39.541Z,3.00
2022-11-27T04:36:42.527Z,3.00
2022-11-27T04:37:46.041Z,3.00
2022-11-27T04:38:48.650Z,3.40
2022-11-27T04:39:51.919Z,3.10
2022-11-27T04:40:54.494Z,3.20
2022-11-27T04:42:00.747Z,3.10
2022-11-27T04:43:03.539Z,3.10
2022-11-27T04:44:07.137Z,3.10
2022-11-27T04:45:10.398Z,2.90
2022-11-27T04:46:13.605Z,3.10
2022-11-27T04:47:16.263Z,3.10
2022-11-27T04:48:20.991Z,3.10
2022-11-27T04:49:24.688Z,3.10
2022-11-27T04:50:31.033Z,3.10
2022-11-27T04:51:33.510Z,3.10
2022-11-27T04:52:36.894Z,3.10
2022-11-27T04:53:39.379Z,3.20
2022-11-27T04:54:42.965Z,3.10
2022-11-27T04:55:52.680Z,3.20
2022-11-27T04:56:55.990Z,3.20
2022-11-27T04:57:58.406Z,3.20
2022-11-27T04:59:01.768Z,3.20
2022-11-27T05:00:06.213Z,3.20
2022-11-27T05:01:10.366Z,3.20
2022-11-27T05:02:12.691Z,3.20
2022-11-27T05:03:16.120Z,3.20
2022-11-27T05:04:18.635Z,3.20
2022-11-27T05:05:23.534Z,3.20
2022-11-27T05:06:26.133Z,3.20
2022-11-27T05:07:30.110Z,3.20
2022-11-27T05:08:33.180Z,3.20
2022-11-27T05:09:36.890Z,3.20
2022-11-27T05:10:39.327Z,3.20
2022-11-27T05:11:42.611Z,3.20
2022-11-27T05:12:45.637Z,3.20
2022-11-27T05:14:11.367Z,3.20
2022-11-27T05:15:13.729Z,4.10
2022-11-27T05:16:17.255Z,3.10
2022-11-27T05:17:19.551Z,3.10
2022-11-27T05:18:23.361Z,3.20
2022-11-27T05:19:29.407Z,3.20
2022-11-27T05:20:33.490Z,3.20
2022-11-27T05:21:37.700Z,3.20
2022-11-27T05:22:41.064Z,3.20
2022-11-27T05:23:43.356Z,3.20
2022-11-27T05:24:46.716Z,3.20
2022-11-27T05:25:49.094Z,3.20
2022-11-27T05:26:53.080Z,3.20
2022-11-27T05:27:55.327Z,3.10
2022-11-27T05:28:58.754Z,4.50
2022-11-27T05:30:01.009Z,3.10
2022-11-27T05:31:04.789Z,3.20
2022-11-27T05:32:07.345Z,3.10
2022-11-27T05:33:10.601Z,3.20
2022-11-27T05:34:13.875Z,3.20
2022-11-27T05:35:17.718Z,3.20
2022-11-27T05:36:21.635Z,3.20
2022-11-27T05:37:25.533Z,3.00
2022-11-27T05:38:27.910Z,3.20
2022-11-27T05:39:31.299Z,3.20
2022-11-27T05:40:33.553Z,3.20
2022-11-27T05:41:40.633Z,3.20
2022-11-27T05:42:43.145Z,3.20
2022-11-27T05:43:46.678Z,3.40
2022-11-27T05:44:50.815Z,3.20
2022-11-27T05:45:57.838Z,4.70
2022-11-27T05:47:00.436Z,4.40
2022-11-27T05:48:06.590Z,3.10
2022-11-27T05:49:09.826Z,3.20
2022-11-27T05:50:15.657Z,3.10
2022-11-27T05:51:18.774Z,3.80
2022-11-27T05:52:25.909Z,3.20
2022-11-27T05:53:31.493Z,3.20
2022-11-27T05:54:37.547Z,3.20
2022-11-27T05:55:40.307Z,3.20
2022-11-27T05:56:43.676Z,3.20
2022-11-27T05:57:46.357Z,3.30
2022-11-27T05:58:51.708Z,3.30
2022-11-27T05:59:54.429Z,3.30
2022-11-27T06:01:00.103Z,3.30
2022-11-27T06:02:03.784Z,3.30
2022-11-27T06:03:09.139Z,3.30
2022-11-27T06:04:12.635Z,3.20
2022-11-27T06:05:15.990Z,3.20
2022-11-27T06:06:21.082Z,4.70
2022-11-27T06:07:25.160Z,3.20
2022-11-27T06:08:28.775Z,1.80
2022-11-27T06:09:32.394Z,3.20
2022-11-27T06:10:34.743Z,3.20
2022-11-27T06:11:38.181Z,4.00
2022-11-27T06:12:43.271Z,3.20
2022-11-27T06:13:48.413Z,3.20
2022-11-27T06:14:50.761Z,3.70
2022-11-27T06:15:53.990Z,3.30
2022-11-27T06:16:56.367Z,3.30
2022-11-27T06:17:59.960Z,1.90
2022-11-27T06:19:04.578Z,3.30
2022-11-27T06:20:10.033Z,3.30
2022-11-27T06:21:14.862Z,3.30
2022-11-27T06:22:18.251Z,2.20
2022-11-27T06:23:23.935Z,3.30
2022-11-27T06:24:28.096Z,3.30
2022-11-27T06:25:30.596Z,3.30
2022-11-27T06:26:35.859Z,3.30
2022-11-27T06:27:38.242Z,3.30
2022-11-27T06:28:42.109Z,3.30
2022-11-27T06:29:44.628Z,3.20
2022-11-27T06:30:48.762Z,3.30
2022-11-27T06:31:52.368Z,3.30
2022-11-27T06:32:54.650Z,3.30
2022-11-27T06:33:59.593Z,3.20
2022-11-27T06:35:02.265Z,3.20
2022-11-27T06:36:07.175Z,3.20
2022-11-27T06:37:13.152Z,3.20
2022-11-27T06:38:17.017Z,3.20
2022-11-27T06:39:20.824Z,3.20
2022-11-27T06:40:26.277Z,3.20
2022-11-27T06:41:29.027Z,3.30
2022-11-27T06:42:32.933Z,3.20
2022-11-27T06:43:35.925Z,3.30
2022-11-27T06:44:39.493Z,3.20
2022-11-27T06:45:42.109Z,3.30
2022-11-27T06:46:45.550Z,3.30
2022-11-27T06:47:48.403Z,3.30
2022-11-27T06:48:53.856Z,3.30
2022-11-27T06:49:56.301Z,3.30
2022-11-27T06:51:02.243Z,3.30
2022-11-27T06:52:05.045Z,4.50
2022-11-27T06:53:08.323Z,3.30
2022-11-27T06:54:11.584Z,3.30
2022-11-27T06:55:15.508Z,3.30
2022-11-27T06:56:21.117Z,3.30
2022-11-27T06:57:23.506Z,3.30
2022-11-27T06:58:31.026Z,3.30
2022-11-27T06:59:33.728Z,3.30
2022-11-27T07:00:40.429Z,3.30
2022-11-27T07:01:46.916Z,3.30
2022-11-27T07:02:54.125Z,3.30
2022-11-27T07:03:58.338Z,2.50
2022-11-27T07:05:00.672Z,3.30
2022-11-27T07:06:06.849Z,3.40
2022-11-27T07:07:10.260Z,3.30
2022-11-27T07:08:12.698Z,3.40
2022-11-27T07:09:16.655Z,3.30
2022-11-27T07:10:20.351Z,3.30
2022-11-27T07:11:26.135Z,3.50
2022-11-27T07:12:28.529Z,3.30
2022-11-27T07:13:32.479Z,3.30
2022-11-27T07:14:35.686Z,3.30
2022-11-27T07:15:38.178Z,3.30
2022-11-27T07:16:41.517Z,3.30
2022-11-27T07:17:44.102Z,3.40
2022-11-27T07:18:50.177Z,3.40
2022-11-27T07:19:54.787Z,3.40
2022-11-27T07:20:58.677Z,3.40
2022-11-27T07:22:01.124Z,3.40
2022-11-27T07:23:04.702Z,3.30
2022-11-27T07:24:07.701Z,3.40
2022-11-27T07:25:11.685Z,3.30
2022-11-27T07:26:18.732Z,3.30
2022-11-27T07:27:24.809Z,3.40
2022-11-27T07:28:28.127Z,3.40
2022-11-27T07:29:31.866Z,3.40
2022-11-27T07:30:34.198Z,3.40
2022-11-27T07:31:37.681Z,3.40
2022-11-27T07:32:40.357Z,3.50
2022-11-27T07:33:43.824Z,3.40
2022-11-27T07:34:46.197Z,3.50
2022-11-27T07:35:49.999Z,2.30
2022-11-27T07:36:52.864Z,3.50
2022-11-27T07:37:56.699Z,3.40
2022-11-27T07:38:59.270Z,3.50
2022-11-27T07:40:03.585Z,4.70
2022-11-27T07:41:07.353Z,3.50
2022-11-27T07:42:37.115Z,3.50
2022-11-27T07:43:36.757Z,4.40
2022-11-27T07:44:39.515Z,3.60
2022-11-27T07:45:43.279Z,4.40
2022-11-27T07:46:46.687Z,3.60
2022-11-27T07:47:50.074Z,3.60
2022-11-27T07:48:53.425Z,3.60
2022-11-27T07:50:00.459Z,3.60
2022-11-27T07:51:06.266Z,3.60
2022-11-27T07:52:09.566Z,3.70
2022-11-27T07:53:12.226Z,4.00
2022-11-27T07:54:15.719Z,3.70
2022-11-27T07:55:18.837Z,3.50
2022-11-27T07:56:23.014Z,3.70
2022-11-27T07:57:27.407Z,3.70
2022-11-27T07:58:30.740Z,3.70
2022-11-27T07:59:33.522Z,3.80
2022-11-27T08:00:39.414Z,4.80
2022-11-27T08:01:43.051Z,3.70
2022-11-27T08:02:46.348Z,3.80
2022-11-27T08:03:48.803Z,3.80
2022-11-27T08:04:52.203Z,3.80
2022-11-27T08:05:54.713Z,3.80
2022-11-27T08:06:58.740Z,3.80
2022-11-27T08:08:01.789Z,3.80
2022-11-27T08:09:05.755Z,4.60
2022-11-27T08:10:09.460Z,3.80
2022-11-27T08:11:22.214Z,3.80
2022-11-27T08:12:27.055Z,3.80
2022-11-27T08:13:30.516Z,3.80
2022-11-27T08:14:33.234Z,3.80
2022-11-27T08:15:37.906Z,3.80
2022-11-27T08:16:40.455Z,3.80
2022-11-27T08:17:43.952Z,3.80
2022-11-27T08:18:47.749Z,3.80
2022-11-27T08:19:52.353Z,3.80
2022-11-27T08:20:54.985Z,3.80
2022-11-27T08:21:59.673Z,3.80
2022-11-27T08:23:03.408Z,3.80
2022-11-27T08:24:08.892Z,3.90
2022-11-27T08:25:15.256Z,3.90
2022-11-27T08:26:18.888Z,3.90
2022-11-27T08:27:21.333Z,4.70
2022-11-27T08:28:28.115Z,3.90
2022-11-27T08:29:34.072Z,3.90
2022-11-27T08:30:37.132Z,4.00
2022-11-27T08:31:41.424Z,4.40
2022-11-27T08:32:44.669Z,3.90
2022-11-27T08:33:48.782Z,4.00
2022-11-27T08:34:51.385Z,4.00
2022-11-27T08:35:55.759Z,4.00
2022-11-27T08:36:58.710Z,4.00
2022-11-27T08:38:02.266Z,4.10
2022-11-27T08:39:05.982Z,4.10
2022-11-27T08:40:09.892Z,4.10
2022-11-27T08:41:16.474Z,4.10
2022-11-27T08:42:19.903Z,4.20
2022-11-27T08:43:25.965Z,4.10
2022-11-27T08:44:29.833Z,4.10
2022-11-27T08:45:34.776Z,4.10
2022-11-27T08:46:37.592Z,4.10
2022-11-27T08:47:43.984Z,4.10
2022-11-27T08:48:47.116Z,4.20
2022-11-27T08:49:55.693Z,4.20
2022-11-27T08:51:06.319Z,3.50
2022-11-27T08:52:14.159Z,4.20
2022-11-27T08:53:18.561Z,4.20
2022-11-27T08:54:26.145Z,4.20
2022-11-27T08:55:28.809Z,4.20
2022-11-27T08:56:33.183Z,4.30
2022-11-27T08:57:36.671Z,4.50
2022-11-27T08:58:44.498Z,4.50
2022-11-27T08:59:50.256Z,4.50
2022-11-27T09:00:57.273Z,4.50
2022-11-27T09:02:03.138Z,4.50
2022-11-27T09:03:06.638Z,4.60
2022-11-27T09:04:10.697Z,4.60
2022-11-27T09:05:13.491Z,4.60
2022-11-27T09:06:19.940Z,4.70
2022-11-27T09:07:34.722Z,4.60
2022-11-27T09:08:37.808Z,4.70
2022-11-27T09:09:41.807Z,4.60
2022-11-27T09:10:45.405Z,4.60
2022-11-27T09:11:49.153Z,4.60
2022-11-27T09:12:51.681Z,4.60
2022-11-27T09:13:57.401Z,4.60
2022-11-27T09:15:00.044Z,4.60
2022-11-27T09:16:04.364Z,4.60
2022-11-27T09:17:07.116Z,3.50
2022-11-27T09:18:11.164Z,4.60
2022-11-27T09:19:14.763Z,4.60
2022-11-27T09:20:18.136Z,4.60
2022-11-27T09:21:23.553Z,4.60
2022-11-27T09:22:29.301Z,4.60
2022-11-27T09:23:32.960Z,4.60
2022-11-27T09:24:38.590Z,5.70
2022-11-27T09:25:41.144Z,4.60
2022-11-27T09:26:45.538Z,4.60
2022-11-27T09:27:48.290Z,4.60
2022-11-27T09:28:52.284Z,4.70
2022-11-27T09:29:56.068Z,4.70
2022-11-27T09:31:02.227Z,4.70
2022-11-27T09:32:06.489Z,5.60
2022-11-27T09:33:10.660Z,4.70
2022-11-27T09:34:16.886Z,6.30
2022-11-27T09:35:20.164Z,4.60
2022-11-27T09:36:27.844Z,4.60
2022-11-27T09:37:30.458Z,4.60
2022-11-27T09:38:34.033Z,4.60
2022-11-27T09:39:38.422Z,4.60
2022-11-27T09:40:45.549Z,4.60
2022-11-27T09:41:56.450Z,4.60
2022-11-27T09:43:03.626Z,4.70
2022-11-27T09:44:20.444Z,4.70
2022-11-27T09:45:28.257Z,5.00
2022-11-27T09:46:36.093Z,3.80
2022-11-27T09:47:45.527Z,4.70
2022-11-27T09:48:52.740Z,4.70
2022-11-27T09:50:02.974Z,4.80
2022-11-27T09:51:11.850Z,4.70
2022-11-27T09:52:25.508Z,4.00
2022-11-27T09:53:35.250Z,6.30
2022-11-27T09:54:51.923Z,5.10
2022-11-27T09:55:59.718Z,5.20
2022-11-27T09:57:05.057Z,5.20
2022-11-27T09:58:23.091Z,5.20
2022-11-27T09:59:37.387Z,5.20
2022-11-27T10:00:44.439Z,5.20
2022-11-27T10:01:51.301Z,5.30
2022-11-27T10:02:55.425Z,5.30
2022-11-27T10:04:00.535Z,5.20
2022-11-27T10:05:14.186Z,5.30
2022-11-27T10:06:28.494Z,5.30
2022-11-27T10:07:48.907Z,5.30
2022-11-27T10:09:08.527Z,5.30
2022-11-27T10:10:29.908Z,5.30
2022-11-27T10:11:43.442Z,5.30
2022-11-27T10:13:01.200Z,5.20
2022-11-27T10:14:26.574Z,5.20
2022-11-27T10:15:39.607Z,5.20
2022-11-27T10:16:51.166Z,5.10
2022-11-27T10:18:04.048Z,5.10
2022-11-27T10:19:23.940Z,5.10
2022-11-27T10:20:33.938Z,5.00
2022-11-27T10:21:45.954Z,5.00
2022-11-27T10:23:01.414Z,5.10
2022-11-27T10:24:16.802Z,5.10
2022-11-27T10:25:25.770Z,5.20
2022-11-27T10:26:34.278Z,5.20
2022-11-27T10:27:45.541Z,5.50
2022-11-27T10:29:00.759Z,5.30
2022-11-27T10:30:14.482Z,5.30
2022-11-27T10:31:27.405Z,5.40
2022-11-27T10:34:04.685Z,5.50
2022-11-27T10:35:16.215Z,5.50
2022-11-27T10:36:28.378Z,5.50
2022-11-27T10:37:38.534Z,5.50
2022-11-27T10:38:44.799Z,5.60
2022-11-27T10:39:54.158Z,5.60
2022-11-27T10:41:09.769Z,5.60
2022-11-27T10:42:23.739Z,5.60
2022-11-27T10:43:27.816Z,5.60
2022-11-27T10:44:38.769Z,5.60
2022-11-27T10:45:49.871Z,5.70
2022-11-27T10:47:01.604Z,5.70
2022-11-27T10:48:07.893Z,5.80
2022-11-27T10:49:11.985Z,5.70
2022-11-27T10:50:16.299Z,5.70
2022-11-27T10:51:30.554Z,5.70
2022-11-27T10:52:34.309Z,5.60
2022-11-27T10:53:42.800Z,5.60
2022-11-27T10:54:51.713Z,5.70
2022-11-27T10:56:36.681Z,5.70
2022-11-27T10:58:08.260Z,6.10
2022-11-27T10:59:19.629Z,5.70
2022-11-27T11:00:25.108Z,5.70
2022-11-27T11:01:41.832Z,5.70
2022-11-27T11:02:45.510Z,5.70
2022-11-27T11:03:49.671Z,5.60
2022-11-27T11:05:16.333Z,5.60
2022-11-27T11:06:22.205Z,5.70
2022-11-27T11:07:29.210Z,5.70
2022-11-27T11:08:34.542Z,5.90
2022-11-27T11:09:37.691Z,5.80
2022-11-27T11:10:51.117Z,5.80
2022-11-27T11:11:53.983Z,5.90
2022-11-27T11:13:22.503Z,5.90
2022-11-27T11:14:27.899Z,5.90
2022-11-27T11:15:31.600Z,5.90
2022-11-27T11:16:44.390Z,5.90
2022-11-27T11:17:46.758Z,5.90
2022-11-27T11:18:53.683Z,6.10
2022-11-27T11:19:56.185Z,5.90
2022-11-27T11:21:01.828Z,5.90
2022-11-27T11:22:14.903Z,6.00
2022-11-27T11:23:35.014Z,5.20
2022-11-27T11:24:42.542Z,5.50
2022-11-27T11:25:51.086Z,6.00
2022-11-27T11:26:59.210Z,6.00
2022-11-27T11:28:01.687Z,6.00
2022-11-27T11:29:19.284Z,6.10
2022-11-27T11:30:24.365Z,6.10
2022-11-27T11:31:35.038Z,6.10
2022-11-27T11:32:40.568Z,6.10
2022-11-27T11:33:56.743Z,6.10
2022-11-27T11:35:04.682Z,6.10
2022-11-27T11:36:14.476Z,6.10
2022-11-27T11:37:24.676Z,6.10
2022-11-27T11:38:32.666Z,6.10
2022-11-27T11:39:45.606Z,6.20
2022-11-27T11:41:01.810Z,6.10
2022-11-27T11:42:12.100Z,6.20
2022-11-27T11:43:27.317Z,6.10
2022-11-27T11:44:38.769Z,6.10
2022-11-27T11:45:49.318Z,6.10
2022-11-27T11:46:53.341Z,6.10
2022-11-27T11:47:58.562Z,6.80
2022-11-27T11:49:06.527Z,6.10
2022-11-27T11:50:16.906Z,6.10
2022-11-27T11:51:43.353Z,6.10
2022-11-27T11:53:00.352Z,6.10
2022-11-27T11:54:19.571Z,6.10
2022-11-27T11:55:32.531Z,6.10
2022-11-27T11:56:41.792Z,6.10
2022-11-27T11:58:04.240Z,6.10
2022-11-27T11:59:17.177Z,6.10
2022-11-27T12:00:29.441Z,6.20
2022-11-27T12:01:56.799Z,6.20
2022-11-27T12:03:28.333Z,6.20
2022-11-27T12:05:15.359Z,6.20
2022-11-27T12:06:35.365Z,6.20
2022-11-27T12:08:00.834Z,6.20
2022-11-27T12:09:18.575Z,6.30
2022-11-27T12:10:29.933Z,6.10
2022-11-27T12:11:45.262Z,6.30
2022-11-27T12:13:03.843Z,6.30
2022-11-27T12:14:21.931Z,6.30
2022-11-27T12:15:34.065Z,6.20
2022-11-27T12:16:46.095Z,6.20
2022-11-27T12:18:01.252Z,6.20
2022-11-27T12:19:32.541Z,6.20
2022-11-27T12:20:51.918Z,6.20
2022-11-27T12:22:07.653Z,6.20
2022-11-27T12:23:49.459Z,6.00
2022-11-27T12:25:04.335Z,6.10
2022-11-27T12:26:23.674Z,6.10
2022-11-27T12:27:39.650Z,6.10
2022-11-27T12:29:25.036Z,6.10
2022-11-27T12:30:39.967Z,6.20
2022-11-27T12:32:04.910Z,6.20
2022-11-27T12:33:33.190Z,6.20
2022-11-27T12:34:49.413Z,6.20
2022-11-27T12:36:02.820Z,6.30
2022-11-27T12:37:28.276Z,6.20
2022-11-27T12:38:51.073Z,6.30
2022-11-27T12:40:15.593Z,6.30
2022-11-27T12:41:45.075Z,6.30
2022-11-27T12:43:00.153Z,6.70
2022-11-27T12:44:20.880Z,6.30
2022-11-27T12:45:30.826Z,6.30
2022-11-27T12:46:42.950Z,6.30
2022-11-27T12:47:52.069Z,6.20
2022-11-27T12:49:00.566Z,6.40
2022-11-27T12:50:10.309Z,6.30
2022-11-27T12:51:24.160Z,6.20
2022-11-27T12:52:36.091Z,6.20
2022-11-27T12:53:48.021Z,6.20
2022-11-27T12:55:00.108Z,6.30
2022-11-27T12:56:13.957Z,6.20
2022-11-27T12:57:24.414Z,6.20
2022-11-27T12:58:32.987Z,6.20
2022-11-27T12:59:45.395Z,6.40
2022-11-27T13:00:55.976Z,6.20
2022-11-27T13:02:07.620Z,6.20
2022-11-27T13:03:22.907Z,6.20
2022-11-27T13:04:35.278Z,6.20
2022-11-27T13:05:45.872Z,6.20
2022-11-27T13:06:59.222Z,6.20
2022-11-27T13:08:11.647Z,6.20
2022-11-27T13:09:21.475Z,6.20
2022-11-27T13:10:34.170Z,6.10
2022-11-27T13:11:43.302Z,6.10
2022-11-27T13:12:55.145Z,6.10
2022-11-27T13:14:05.112Z,6.20
2022-11-27T13:15:20.705Z,6.20
2022-11-27T13:16:32.120Z,6.20
2022-11-27T13:17:43.788Z,6.20
2022-11-27T13:18:53.919Z,6.20
2022-11-27T13:20:03.959Z,6.20
2022-11-27T13:21:15.003Z,6.20
2022-11-27T13:22:27.726Z,6.20
2022-11-27T13:23:33.427Z,6.20
2022-11-27T13:24:36.889Z,6.20
2022-11-27T13:25:46.848Z,6.20
2022-11-27T13:27:02.535Z,6.20
2022-11-27T13:28:07.960Z,6.20
2022-11-27T13:29:24.026Z,6.30
2022-11-27T13:30:33.176Z,6.30
2022-11-27T13:31:39.530Z,6.30
2022-11-27T13:32:49.676Z,6.30
2022-11-27T13:34:00.165Z,6.00
2022-11-27T13:35:07.763Z,6.30
2022-11-27T13:36:23.023Z,6.30
2022-11-27T13:37:34.882Z,6.30
2022-11-27T13:38:45.239Z,6.30
2022-11-27T13:39:48.873Z,6.40
2022-11-27T13:40:57.707Z,6.30
2022-11-27T13:42:05.980Z,7.40
2022-11-27T13:43:24.048Z,6.30
2022-11-27T13:44:29.396Z,6.30
2022-11-27T13:45:37.483Z,6.20
2022-11-27T13:46:49.973Z,6.30
2022-11-27T13:47:54.415Z,6.20
2022-11-27T13:49:03.528Z,6.30
2022-11-27T13:50:09.758Z,6.30
2022-11-27T13:51:25.650Z,6.30
2022-11-27T13:52:32.683Z,6.20
2022-11-27T13:53:38.608Z,6.20
2022-11-27T13:54:54.132Z,6.30
2022-11-27T13:55:57.797Z,6.30
2022-11-27T13:57:12.128Z,6.20
2022-11-27T13:58:15.830Z,6.30
2022-11-27T13:59:22.290Z,6.20
2022-11-27T14:00:38.778Z,6.30
2022-11-27T14:01:52.549Z,6.20
2022-11-27T14:02:55.985Z,6.30
2022-11-27T14:04:07.503Z,6.30
2022-11-27T14:05:11.648Z,6.30
2022-11-27T14:06:22.658Z,6.40
2022-11-27T14:07:41.418Z,6.10
2022-11-27T14:09:02.344Z,6.20
2022-11-27T14:10:12.205Z,6.20
2022-11-27T14:11:15.656Z,6.20
2022-11-27T14:12:28.461Z,6.20
2022-11-27T14:13:40.010Z,6.20
2022-11-27T14:14:44.577Z,6.00
2022-11-27T14:16:02.140Z,6.20
2022-11-27T14:17:07.882Z,6.20
2022-11-27T14:18:23.377Z,6.20
2022-11-27T14:19:34.963Z,6.20
2022-11-27T14:20:49.914Z,6.20
2022-11-27T14:21:54.845Z,6.70
2022-11-27T14:23:11.843Z,6.20
2022-11-27T14:24:27.728Z,6.20
2022-11-27T14:25:33.882Z,6.40
2022-11-27T14:26:36.323Z,6.30
2022-11-27T14:27:40.192Z,6.70
2022-11-27T14:28:47.082Z,6.30
2022-11-27T14:29:50.399Z,6.30
2022-11-27T14:30:56.920Z,6.30
2022-11-27T14:32:02.463Z,6.30
2022-11-27T14:33:16.902Z,6.40
2022-11-27T14:34:28.251Z,6.30
2022-11-27T14:35:30.802Z,6.30
2022-11-27T14:36:36.542Z,6.30
2022-11-27T14:37:39.070Z,6.20
2022-11-27T14:38:50.454Z,6.30
2022-11-27T14:39:53.647Z,6.20
2022-11-27T14:41:09.655Z,6.20
2022-11-27T14:42:28.278Z,6.20
2022-11-27T14:43:32.794Z,6.10
2022-11-27T14:44:38.940Z,6.30
2022-11-27T14:45:47.656Z,6.30
2022-11-27T14:46:51.290Z,6.30
2022-11-27T14:47:56.550Z,6.30
2022-11-27T14:49:00.346Z,6.30
2022-11-27T14:50:04.106Z,6.20
2022-11-27T14:51:13.367Z,6.20
2022-11-27T14:52:20.066Z,6.20
2022-11-27T14:53:27.809Z,6.30
2022-11-27T14:54:38.113Z,6.20
2022-11-27T14:55:41.227Z,6.20
2022-11-27T14:56:48.502Z,6.20
2022-11-27T14:57:52.914Z,6.20
2022-11-27T14:58:57.938Z,6.20
2022-11-27T15:00:14.471Z,6.20
2022-11-27T15:01:28.013Z,6.20